»·PEaware :: SWA1784 KLAX-KLAS

SWA1784 :: KLAX-KLAS

FLIGHT INFORMATION

Flight Status: Arrived
Operator:
Southwest Airlines
More flights by this operator :: More flights under this callsign
Pilot: Anonymous 14085 (14085)
Aircraft: BOEING 737-300
(B733)
More flights by this aircraft type
Origin: KLAX Los Angeles Intl
United States
Destination: KLAS McCarran Intl
United States
More flights between these airports :: More routes between these airports
Route: ORCKA1 MISEN KEPEC4
File this flight plan on PilotEdge
Remarks: PBN / A1B3B4B5D3D4 DOF / 170530 REG / N372SB OPR / SWA RMK / TCAS SIMBRIEF
Altitude:
(Current/Filed)
35,000ft
Speed:
(Current/Filed)
429kts
Departed: 29-May-17 10:35 PM
Arrived: 29-May-17 11:15 PM
Distance/Time
Traveled:
204nm/0:39
Distance/Time
To Go:
Arrived

Flight Plot

Page will automatically refresh every two minutes.

Flight plan parsing failed; only flown route is shown


Map Options




Map Legend


Flown Route
Filed Route
Departure Airport
Arrival Airport
Navaid (VOR, NDB)
Fix

Horizontal Profiles

Position Reports

Time Latitude Longitude Heading Altitude Ground
Speed
29-May-17 22:11 33.947379 -118.401827 111 110ft 0kts
29-May-17 22:12 33.947379 -118.401827 111 110ft 0kts
29-May-17 22:13 33.947379 -118.401827 111 110ft 0kts
29-May-17 22:14 33.947379 -118.401827 111 110ft 0kts
29-May-17 22:15 33.947379 -118.401827 111 110ft 0kts
29-May-17 22:16 33.947379 -118.401827 111 110ft 0kts
29-May-17 22:17 33.947379 -118.401827 111 110ft 0kts
29-May-17 22:18 33.947379 -118.401827 111 110ft 0kts
29-May-17 22:19 33.947379 -118.401827 111 110ft 0kts
29-May-17 22:20 33.947379 -118.401827 111 110ft 0kts
29-May-17 22:21 33.947379 -118.401827 111 110ft 0kts
29-May-17 22:22 33.947379 -118.401827 111 110ft 0kts
29-May-17 22:23 33.947379 -118.401827 111 110ft 0kts
29-May-17 22:24 33.947379 -118.401827 111 110ft 0kts
29-May-17 22:25 33.947379 -118.401827 111 110ft 0kts
29-May-17 22:26 33.947490 -118.402168 111 110ft 0kts
29-May-17 22:27 33.947685 -118.402729 113 110ft 0kts
29-May-17 22:28 33.947685 -118.402729 113 110ft 0kts
29-May-17 22:29 33.947685 -118.402729 113 110ft 0kts
29-May-17 22:30 33.947685 -118.402729 113 110ft 0kts
29-May-17 22:31 33.948053 -118.402759 335 110ft 4kts
29-May-17 22:32 33.949150 -118.401164 80 110ft 3kts
29-May-17 22:33 33.949274 -118.400852 43 110ft 0kts
29-May-17 22:34 33.949274 -118.400852 43 110ft 0kts
29-May-17 22:35 33.949297 -118.400827 41 110ft 0kts
29-May-17 22:36 33.951025 -118.401610 233 110ft 14kts
29-May-17 22:37 33.948420 -118.418919 263 273ft 151kts
29-May-17 22:38 33.946093 -118.474416 264 3079ft 202kts
29-May-17 22:39 33.939429 -118.550086 263 5527ft 257kts
29-May-17 22:40 33.928148 -118.615727 219 8515ft 272kts
29-May-17 22:41 33.868591 -118.577666 96 11096ft 344kts
29-May-17 22:42 33.920094 -118.481708 56 14447ft 370kts
29-May-17 22:43 33.971151 -118.371774 59 17545ft 388kts
29-May-17 22:44 34.030429 -118.260140 55 20246ft 409kts
29-May-17 22:45 34.093296 -118.152216 53 22665ft 425kts
29-May-17 22:46 34.162196 -118.036040 52 24957ft 441kts
29-May-17 22:47 34.234150 -117.913911 51 27037ft 457kts
29-May-17 22:48 34.308043 -117.788010 49 29320ft 463kts
29-May-17 22:49 34.380590 -117.663969 47 32240ft 446kts
29-May-17 22:50 34.451105 -117.543022 46 34607ft 436kts
29-May-17 22:51 34.521372 -117.422151 46 35004ft 441kts
29-May-17 22:52 34.590114 -117.303245 47 34981ft 439kts
29-May-17 22:53 34.660120 -117.181798 47 34994ft 440kts
29-May-17 22:54 34.730004 -117.060299 47 34909ft 440kts
29-May-17 22:55 34.797519 -116.942024 47 34914ft 440kts
29-May-17 22:56 34.867256 -116.819928 47 34913ft 440kts
29-May-17 22:57 34.920174 -116.726863 47 34383ft 448kts
29-May-17 22:58 34.981014 -116.618890 48 31834ft 454kts
29-May-17 22:59 35.052681 -116.492203 50 28863ft 458kts
29-May-17 23:00 35.128437 -116.370068 41 25878ft 456kts
29-May-17 23:01 35.211017 -116.267804 44 23647ft 438kts
29-May-17 23:02 35.293373 -116.164469 44 22074ft 420kts
29-May-17 23:03 35.374344 -116.062550 45 20299ft 415kts
29-May-17 23:04 35.453393 -115.962728 46 18403ft 402kts
29-May-17 23:05 35.505179 -115.889177 63 17038ft 391kts
29-May-17 23:06 35.572067 -115.787942 51 15141ft 376kts
29-May-17 23:07 35.635487 -115.689331 52 13245ft 362kts
29-May-17 23:08 35.694108 -115.597234 52 11702ft 331kts
29-May-17 23:09 35.749561 -115.509835 52 9729ft 322kts
29-May-17 23:10 35.803741 -115.424229 51 7742ft 315kts
29-May-17 23:11 35.854092 -115.343439 54 6531ft 286kts
29-May-17 23:12 35.897030 -115.274397 37 6262ft 245kts
29-May-17 23:13 35.955478 -115.238347 24 5705ft 229kts
29-May-17 23:14 36.006125 -115.213728 24 5132ft 169kts
29-May-17 23:15 36.046262 -115.189485 27 4695ft 170kts
29-May-17 23:16 36.073713 -115.148866 90 2488ft 170kts
29-May-17 23:17 36.073669 -115.126924 87 2442ft 12kts
29-May-17 23:18 36.070921 -115.173766 44 3154ft 186kts

Navigation Log

Ident Type
Flight plan parsing failed, navigation log unavailable